Impacts METAR Board
IDs:

KCVG - Cincinnati Intl, KY, US

Updated at: 1200 UTC 27 Feb 2021
Potential Impact None Slight Moderate High
Time 27/00Z 27/01Z 27/02Z 27/03Z 27/04Z 27/05Z 27/06Z 27/07Z 27/08Z 27/09Z 27/10Z 27/11Z 27/12Z
Temp40 40 40 41 42 43 43 44 45 46 46 47 47
Dewpt34 37 38 39 39 40 40 41 42 43 44 44 45
Altim30.03 30.02 29.98 29.98 29.97 29.95 29.93 29.91 29.88 29.88 29.89 29.92 29.96
VIS8 2 3 3 3 3 3 3 3 6 5 2.5 2.5
CIG14 6 5 5 5 6 6 7 16 9 5 5 3
CoverOVCOVCOVCOVCOVCOVCOVCOVCOVCOVCOVCOVCOVC
FltCatMVFRIFRIFRIFRIFRIFRIFRIFRMVFRIFRIFRIFRLIFR
WX-RA-DZ BRBR-DZ BRBRBRBRBRBRBR-DZ BR-RA BR-DZ BR
WDir130130130150150160160150160190180230270
WSpd7 7 8 9 11 9 8 9 8 6 6 6 9
WGst-- -- -- -- -- -- -- -- -- -- -- -- --
Raw hourly METARs
KCVG 262352Z 13007KT 8SM -RA OVC014 04/01 A3003 RMK AO2 RAE24B44 SLP174 P0000 60000 T00440011 10078 20044 56014
KCVG 270052Z 13007KT 2SM -DZ BR OVC006 04/03 A3002 RMK AO2 TWR VIS 4 RAE21DZB21 SLP168 P0001 T00440028
KCVG 270152Z 13008KT 3SM BR OVC005 04/03 A2998 RMK AO2 SFC VIS 4 DZE09 SLP157 CIG 003V006 P0001 T00440033
KCVG 270252Z 15009KT 3SM -DZ BR OVC005 05/04 A2998 RMK AO2 SFC VIS 4 DZB48 SLP154 P0000 60002 T00500039 56019
KCVG 270352Z 15011KT 3SM BR OVC005 06/04 A2997 RMK AO2 SFC VIS 6 DZE13 SLP150 P0001 T00560039
KCVG 270452Z 16009KT 3SM BR OVC006 06/04 A2995 RMK AO2 SFC VIS 6 SLP145 T00610044 400781006
KCVG 270552Z 16008KT 3SM BR OVC006 06/04 A2993 RMK AO2 SFC VIS 6 SLP138 60003 T00610044 10061 20044 58015
KCVG 270652Z 15009KT 3SM BR FEW005 BKN007 OVC020 07/05 A2991 RMK AO2 SFC VIS 6 PRESFR SLP127 T00670050
KCVG 270752Z 16008KT 3SM BR FEW008 OVC016 07/06 A2988 RMK AO2 SFC VIS 6 RAB21E30 SLP120 P0000 T00720056
KCVG 270852Z 19006KT 6SM BR OVC009 08/06 A2988 RMK AO2 SLP120 60000 T00780061 55017
KCVG 270952Z 18006KT 5SM -DZ BR OVC005 08/07 A2989 RMK AO2 DZB52 SLP121 P0000 T00780067
KCVG 271052Z 23006KT 2 1/2SM -RA BR OVC005 08/07 A2992 RMK AO2 DZE18RAB18 SLP134 P0003 T00830067
KCVG 271200Z 27009KT 2 1/2SM -DZ BR BKN003 OVC006 08/07 A2996 RMK AO2 SFC VIS 5 P0000 T00830072



Page loaded:  12:59 UTC  |   04:59 AM Pacific  |   05:59 AM Mountain  |   06:59 AM Central  |   07:59 AM Eastern

 

ADVISORIES

FORECASTS

FORECASTS

OBSERVATIONS

USER TOOLS

ABOUT US